createdAt,value
2022-08-07T00:02:41.198Z,100.00
2022-08-07T00:05:03.993Z,100.00
2022-08-07T00:07:40.303Z,100.00
2022-08-07T00:10:27.221Z,100.00
2022-08-07T00:13:02.068Z,100.00
2022-08-07T00:15:38.253Z,100.00
2022-08-07T00:18:19.220Z,100.00
2022-08-07T00:20:50.737Z,100.00
2022-08-07T00:23:21.078Z,100.00
2022-08-07T00:26:00.445Z,100.00
2022-08-07T00:28:33.936Z,100.00
2022-08-07T00:31:06.163Z,100.00
2022-08-07T00:33:36.171Z,100.00
2022-08-07T00:36:07.208Z,100.00
2022-08-07T00:38:37.476Z,100.00
2022-08-07T00:41:09.839Z,100.00
2022-08-07T00:44:00.411Z,100.00
2022-08-07T00:46:27.541Z,100.00
2022-08-07T00:48:56.112Z,100.00
2022-08-07T00:51:27.876Z,100.00
2022-08-07T00:54:15.501Z,100.00
2022-08-07T00:56:53.235Z,100.00
2022-08-07T00:59:32.698Z,100.00
2022-08-07T01:02:14.014Z,100.00
2022-08-07T01:04:58.414Z,100.00
2022-08-07T01:07:31.202Z,100.00
2022-08-07T01:10:07.210Z,100.00
2022-08-07T01:12:54.101Z,100.00
2022-08-07T01:16:00.470Z,100.00
2022-08-07T01:18:16.957Z,100.00
2022-08-07T01:20:57.742Z,100.00
2022-08-07T01:23:39.473Z,100.00
2022-08-07T01:26:16.727Z,100.00
2022-08-07T01:28:51.474Z,100.00
2022-08-07T01:31:42.414Z,100.00
2022-08-07T01:34:14.833Z,100.00
2022-08-07T01:36:52.453Z,100.00
2022-08-07T01:39:40.847Z,100.00
2022-08-07T01:42:38.329Z,100.00
2022-08-07T01:45:17.830Z,100.00
2022-08-07T01:48:29.735Z,100.00
2022-08-07T01:50:43.057Z,100.00
2022-08-07T01:53:21.101Z,100.00
2022-08-07T01:56:01.955Z,100.00
2022-08-07T01:58:40.875Z,100.00
2022-08-07T02:01:25.372Z,100.00
2022-08-07T02:04:07.933Z,100.00
2022-08-07T02:06:39.383Z,100.00
2022-08-07T02:09:51.690Z,100.00
2022-08-07T02:12:17.730Z,100.00
2022-08-07T02:14:58.321Z,100.00
2022-08-07T02:17:40.823Z,100.00
2022-08-07T02:20:23.399Z,100.00
2022-08-07T02:22:59.586Z,100.00
2022-08-07T02:26:10.351Z,100.00
2022-08-07T02:28:24.549Z,100.00
2022-08-07T02:30:57.787Z,100.00
2022-08-07T02:33:41.850Z,100.00
2022-08-07T02:36:28.341Z,100.00
2022-08-07T02:39:09.263Z,100.00
2022-08-07T02:41:54.329Z,100.00
2022-08-07T02:44:34.402Z,100.00
2022-08-07T02:47:08.555Z,100.00
2022-08-07T02:49:58.676Z,100.00
2022-08-07T02:52:35.376Z,100.00
2022-08-07T02:55:27.441Z,100.00
2022-08-07T02:58:03.158Z,100.00
2022-08-07T03:00:36.136Z,100.00
2022-08-07T03:03:13.616Z,100.00
2022-08-07T03:05:48.035Z,100.00
2022-08-07T03:08:19.265Z,100.00
2022-08-07T03:10:57.620Z,100.00
2022-08-07T03:13:39.191Z,100.00
2022-08-07T03:16:27.667Z,100.00
2022-08-07T03:18:58.008Z,100.00
2022-08-07T03:21:27.591Z,100.00
2022-08-07T03:24:18.289Z,100.00
2022-08-07T03:26:58.079Z,100.00
2022-08-07T03:29:33.926Z,100.00
2022-08-07T03:32:13.297Z,100.00
2022-08-07T03:34:47.267Z,100.00
2022-08-07T03:37:37.516Z,100.00
2022-08-07T03:40:22.970Z,100.00
2022-08-07T03:42:52.779Z,100.00
2022-08-07T03:45:30.598Z,100.00
2022-08-07T03:48:10.120Z,100.00
2022-08-07T03:50:43.183Z,100.00
2022-08-07T03:53:30.270Z,100.00
2022-08-07T03:56:33.627Z,100.00
2022-08-07T03:59:13.320Z,100.00
2022-08-07T04:01:48.283Z,100.00
2022-08-07T04:04:23.782Z,100.00
2022-08-07T04:07:00.097Z,100.00
2022-08-07T04:09:44.711Z,100.00
2022-08-07T04:12:25.500Z,100.00
2022-08-07T04:14:58.395Z,100.00
2022-08-07T04:18:04.602Z,100.00
2022-08-07T04:20:21.389Z,100.00
2022-08-07T04:23:01.577Z,100.00
2022-08-07T04:25:35.850Z,100.00
2022-08-07T04:28:10.415Z,100.00
2022-08-07T04:30:55.526Z,100.00
2022-08-07T04:33:35.391Z,100.00
2022-08-07T04:36:08.918Z,100.00
2022-08-07T04:38:40.294Z,100.00
2022-08-07T04:41:18.273Z,100.00
2022-08-07T04:44:14.436Z,100.00
2022-08-07T04:47:04.690Z,100.00
2022-08-07T04:49:57.329Z,100.00
2022-08-07T04:52:52.212Z,100.00
2022-08-07T04:58:16.617Z,100.00
2022-08-07T04:58:49.761Z,100.00
2022-08-07T05:01:31.988Z,100.00
2022-08-07T05:04:17.162Z,100.00
2022-08-07T05:06:59.454Z,100.00
2022-08-07T05:09:46.063Z,100.00
2022-08-07T05:12:27.228Z,100.00
2022-08-07T05:15:23.382Z,100.00
2022-08-07T05:18:09.351Z,100.00
2022-08-07T05:20:45.343Z,100.00
2022-08-07T05:23:19.390Z,100.00
2022-08-07T05:26:12.974Z,100.00
2022-08-07T05:28:49.990Z,100.00
2022-08-07T05:31:24.373Z,100.00
2022-08-07T05:34:05.870Z,100.00
2022-08-07T05:36:43.690Z,100.00
2022-08-07T05:40:05.753Z,100.00
2022-08-07T05:42:34.925Z,100.00
2022-08-07T05:45:25.808Z,100.00
2022-08-07T05:48:03.277Z,100.00
2022-08-07T05:50:50.759Z,100.00
2022-08-07T05:54:13.381Z,100.00
2022-08-07T05:56:12.366Z,100.00
2022-08-07T05:58:52.321Z,100.00
2022-08-07T06:01:25.918Z,100.00
2022-08-07T06:04:00.896Z,100.00
2022-08-07T06:06:38.289Z,100.00
2022-08-07T06:09:16.912Z,100.00
2022-08-07T06:11:49.335Z,100.00
2022-08-07T06:14:28.842Z,100.00
2022-08-07T06:17:07.342Z,100.00
2022-08-07T06:19:52.299Z,100.00
2022-08-07T06:22:38.707Z,100.00
2022-08-07T06:25:24.539Z,100.00
2022-08-07T06:28:04.191Z,100.00
2022-08-07T06:30:41.351Z,100.00
2022-08-07T06:33:16.007Z,100.00
2022-08-07T06:36:06.120Z,100.00
2022-08-07T06:38:36.824Z,100.00
2022-08-07T06:41:13.013Z,100.00
2022-08-07T06:43:59.550Z,100.00
2022-08-07T06:46:38.099Z,100.00
2022-08-07T06:49:12.792Z,100.00
2022-08-07T06:51:50.049Z,100.00
2022-08-07T06:55:34.103Z,100.00
2022-08-07T06:57:13.720Z,100.00
2022-08-07T07:00:13.580Z,100.00
2022-08-07T07:02:54.569Z,100.00
2022-08-07T07:06:04.973Z,100.00
2022-08-07T07:08:18.905Z,100.00
2022-08-07T07:10:56.910Z,100.00
2022-08-07T07:13:56.245Z,100.00
2022-08-07T07:16:30.523Z,100.00
2022-08-07T07:19:34.123Z,100.00
2022-08-07T07:22:04.785Z,100.00
2022-08-07T07:24:56.650Z,100.00
2022-08-07T07:27:35.708Z,100.00
2022-08-07T07:30:32.610Z,100.00
2022-08-07T07:33:11.812Z,100.00
2022-08-07T07:36:04.819Z,100.00
2022-08-07T07:38:35.804Z,100.00
2022-08-07T07:41:09.250Z,100.00
2022-08-07T07:44:14.637Z,100.00
2022-08-07T07:46:53.604Z,100.00
2022-08-07T07:50:34.296Z,100.00
2022-08-07T07:52:19.967Z,100.00
2022-08-07T07:54:52.193Z,100.00
2022-08-07T07:57:29.088Z,100.00
2022-08-07T08:00:20.739Z,100.00
2022-08-07T08:03:04.621Z,100.00
2022-08-07T08:05:42.888Z,100.00
2022-08-07T08:08:35.037Z,100.00
2022-08-07T08:11:16.621Z,100.00
2022-08-07T08:13:58.661Z,100.00
2022-08-07T08:16:35.162Z,100.00
2022-08-07T08:19:18.187Z,100.00
2022-08-07T08:22:13.646Z,100.00
2022-08-07T08:25:18.371Z,100.00
2022-08-07T08:27:56.475Z,100.00
2022-08-07T08:30:34.608Z,100.00
2022-08-07T08:33:10.613Z,100.00
2022-08-07T08:35:50.587Z,100.00
2022-08-07T08:38:29.617Z,100.00
2022-08-07T08:41:07.085Z,100.00
2022-08-07T08:43:42.107Z,100.00
2022-08-07T08:46:20.407Z,100.00
2022-08-07T08:48:59.641Z,100.00
2022-08-07T08:52:00.819Z,100.00
2022-08-07T08:54:27.511Z,100.00
2022-08-07T08:57:02.281Z,100.00
2022-08-07T08:59:48.237Z,100.00
2022-08-07T09:02:35.002Z,100.00
2022-08-07T09:05:36.623Z,100.00
2022-08-07T09:08:39.290Z,100.00
2022-08-07T09:11:24.261Z,100.00
2022-08-07T09:14:11.636Z,100.00
2022-08-07T09:17:01.707Z,100.00
2022-08-07T09:19:57.636Z,100.00
2022-08-07T09:24:33.365Z,100.00
2022-08-07T09:25:39.881Z,100.00
2022-08-07T09:30:04.470Z,90.06
2022-08-07T09:31:11.899Z,85.01
2022-08-07T09:34:02.084Z,75.13
2022-08-07T09:36:37.266Z,70.00
2022-08-07T09:39:54.189Z,67.80
2022-08-07T09:42:32.918Z,68.50
2022-08-07T09:47:24.754Z,70.46
2022-08-07T09:48:15.095Z,68.41
2022-08-07T09:50:57.406Z,66.69
2022-08-07T09:53:40.915Z,63.92
2022-08-07T09:57:03.406Z,67.32
2022-08-07T10:00:04.836Z,66.83
2022-08-07T10:04:06.578Z,67.66
2022-08-07T10:06:30.671Z,63.08
2022-08-07T10:10:00.217Z,60.77
2022-08-07T10:12:53.678Z,57.05
2022-08-07T10:15:46.366Z,53.44
2022-08-07T10:19:00.840Z,57.76
2022-08-07T10:22:15.036Z,58.78
2022-08-07T10:24:51.225Z,54.50
2022-08-07T10:27:46.448Z,50.20
2022-08-07T10:30:19.260Z,47.13
2022-08-07T10:34:14.079Z,53.01
2022-08-07T10:36:30.221Z,52.84
2022-08-07T10:39:19.058Z,58.33
2022-08-07T10:42:09.293Z,58.82
2022-08-07T10:44:54.689Z,52.45
2022-08-07T10:47:53.296Z,51.47
2022-08-07T10:50:26.725Z,49.80
2022-08-07T10:53:08.322Z,48.21
2022-08-07T10:55:46.603Z,49.02
2022-08-07T10:58:36.645Z,48.15
2022-08-07T11:01:35.728Z,53.18
2022-08-07T11:04:32.239Z,49.29
2022-08-07T11:07:24.739Z,46.41
2022-08-07T11:10:07.568Z,44.53
2022-08-07T11:12:49.285Z,48.94
2022-08-07T11:15:35.545Z,52.39
2022-08-07T11:18:12.482Z,56.38
2022-08-07T11:20:49.748Z,52.64
2022-08-07T11:23:30.325Z,56.61
2022-08-07T11:26:13.157Z,50.96
2022-08-07T11:28:53.524Z,48.64
2022-08-07T11:31:35.030Z,51.29
2022-08-07T11:34:11.658Z,52.22
2022-08-07T11:36:57.915Z,50.80
2022-08-07T11:39:59.757Z,49.12
2022-08-07T11:42:43.982Z,51.96
2022-08-07T11:45:35.536Z,50.13
2022-08-07T11:48:29.755Z,49.51
2022-08-07T11:51:41.938Z,55.98
2022-08-07T11:54:54.753Z,64.72
2022-08-07T11:57:59.757Z,62.02
2022-08-07T12:00:35.888Z,62.88
2022-08-07T12:03:47.942Z,65.60
2022-08-07T12:06:37.211Z,72.64
2022-08-07T12:09:16.526Z,71.83
2022-08-07T12:12:10.610Z,72.95
2022-08-07T12:14:56.416Z,75.16
2022-08-07T12:17:58.728Z,80.36
2022-08-07T12:20:32.705Z,90.66
2022-08-07T12:23:21.383Z,95.67
2022-08-07T12:26:23.002Z,100.00
2022-08-07T12:29:02.540Z,100.00
2022-08-07T12:32:02.253Z,98.10
2022-08-07T12:34:31.482Z,94.25
2022-08-07T12:37:02.182Z,92.07
2022-08-07T12:39:43.305Z,92.28
2022-08-07T12:42:14.352Z,91.45
2022-08-07T12:44:49.171Z,94.38
2022-08-07T12:47:26.987Z,92.63
2022-08-07T12:50:39.236Z,90.53
2022-08-07T12:53:17.891Z,89.13
2022-08-07T12:56:02.626Z,87.98
2022-08-07T12:58:39.807Z,87.05
2022-08-07T13:01:18.415Z,89.38
2022-08-07T13:04:04.428Z,90.45
2022-08-07T13:07:01.867Z,89.76
2022-08-07T13:10:20.150Z,88.42
2022-08-07T13:12:52.001Z,88.62
2022-08-07T13:15:31.916Z,89.43
2022-08-07T13:18:25.884Z,89.76
2022-08-07T13:21:03.635Z,90.44
2022-08-07T13:24:01.898Z,86.93
2022-08-07T13:26:41.902Z,87.72
2022-08-07T13:29:18.521Z,85.97
2022-08-07T13:31:57.291Z,87.26
2022-08-07T13:34:36.817Z,87.40
2022-08-07T13:37:20.082Z,87.37
2022-08-07T13:40:35.838Z,87.60
2022-08-07T13:42:55.883Z,87.74
2022-08-07T13:46:12.195Z,88.65
2022-08-07T13:48:27.885Z,86.98
2022-08-07T13:51:26.970Z,87.80
2022-08-07T13:54:00.688Z,90.26
2022-08-07T13:56:36.105Z,88.67
2022-08-07T13:59:13.956Z,88.80
2022-08-07T14:02:03.647Z,89.07
2022-08-07T14:04:38.025Z,92.15
2022-08-07T14:07:18.203Z,91.73
2022-08-07T14:10:12.451Z,90.90
2022-08-07T14:12:49.334Z,89.93
2022-08-07T14:15:34.998Z,90.77
2022-08-07T14:18:27.444Z,90.81
2022-08-07T14:21:08.206Z,92.03
2022-08-07T14:24:00.826Z,93.26
2022-08-07T14:26:40.604Z,92.28
2022-08-07T14:30:05.724Z,93.79
2022-08-07T14:32:21.058Z,95.46
2022-08-07T14:34:55.615Z,97.17
2022-08-07T14:37:36.184Z,95.82
2022-08-07T14:40:17.991Z,94.05
2022-08-07T14:43:00.840Z,92.90
2022-08-07T14:45:51.382Z,95.47
2022-08-07T14:48:27.638Z,96.56
2022-08-07T14:51:00.099Z,97.21
2022-08-07T14:54:08.849Z,96.68
2022-08-07T14:56:29.755Z,98.42
2022-08-07T14:59:13.727Z,97.27
2022-08-07T15:01:58.242Z,95.72
2022-08-07T15:04:28.981Z,93.95
2022-08-07T15:12:44.062Z,94.54
2022-08-07T15:15:27.651Z,95.47
2022-08-07T15:18:14.262Z,96.90
2022-08-07T15:21:03.972Z,93.35
2022-08-07T15:25:02.366Z,95.72
2022-08-07T15:26:37.722Z,94.18
2022-08-07T15:30:10.913Z,93.67
2022-08-07T15:32:05.012Z,93.88
2022-08-07T15:34:50.731Z,93.64
2022-08-07T15:37:29.434Z,92.31
2022-08-07T15:40:33.825Z,94.24
2022-08-07T15:43:53.153Z,95.55
2022-08-07T15:46:31.902Z,95.09
2022-08-07T15:49:14.508Z,96.30
2022-08-07T15:54:39.697Z,97.87
2022-08-07T15:57:28.183Z,98.79
2022-08-07T16:00:04.467Z,98.48
2022-08-07T16:02:45.755Z,97.00
2022-08-07T16:05:19.745Z,95.84
2022-08-07T16:08:30.325Z,98.73
2022-08-07T16:10:48.506Z,95.73
2022-08-07T16:13:58.928Z,96.42
2022-08-07T16:16:47.718Z,94.25
2022-08-07T16:19:42.531Z,97.14
2022-08-07T16:22:37.888Z,97.29
2022-08-07T16:25:23.218Z,97.56
2022-08-07T16:28:12.758Z,98.13
2022-08-07T16:31:06.042Z,95.53
2022-08-07T16:34:01.834Z,95.38
2022-08-07T16:36:47.868Z,98.99
2022-08-07T16:39:55.915Z,98.53
2022-08-07T16:42:53.890Z,97.44
2022-08-07T16:46:40.758Z,97.43
2022-08-07T16:50:28.730Z,98.86
2022-08-07T16:52:52.066Z,100.00
2022-08-07T16:55:14.860Z,100.00
2022-08-07T16:58:04.099Z,100.00
2022-08-07T17:00:42.141Z,100.00
2022-08-07T17:03:19.019Z,100.00
2022-08-07T17:06:29.573Z,100.00
2022-08-07T17:09:13.909Z,100.00
2022-08-07T17:12:04.936Z,100.00
2022-08-07T17:14:50.428Z,100.00
2022-08-07T17:17:44.087Z,100.00
2022-08-07T17:20:29.733Z,100.00
2022-08-07T17:23:08.575Z,100.00
2022-08-07T17:25:52.736Z,100.00
2022-08-07T17:28:32.536Z,100.00
2022-08-07T17:31:16.157Z,100.00
2022-08-07T17:34:32.794Z,100.00
2022-08-07T17:36:57.936Z,100.00
2022-08-07T17:39:58.614Z,100.00
2022-08-07T17:42:59.543Z,100.00
2022-08-07T17:45:35.176Z,100.00
2022-08-07T17:48:12.799Z,100.00
2022-08-07T17:50:58.203Z,100.00
2022-08-07T17:54:01.333Z,100.00
2022-08-07T17:56:31.473Z,100.00
2022-08-07T17:59:06.952Z,100.00
2022-08-07T18:01:48.613Z,100.00
2022-08-07T18:04:34.822Z,100.00
2022-08-07T18:07:20.130Z,98.81
2022-08-07T18:10:07.667Z,100.00
2022-08-07T18:13:15.294Z,100.00
2022-08-07T18:15:56.855Z,100.00
2022-08-07T18:21:01.892Z,100.00
2022-08-07T18:21:51.602Z,100.00
2022-08-07T18:24:34.664Z,100.00
2022-08-07T18:27:39.017Z,100.00
2022-08-07T18:30:31.719Z,100.00
2022-08-07T18:33:55.017Z,100.00
2022-08-07T18:36:39.961Z,100.00
2022-08-07T18:40:07.124Z,100.00
2022-08-07T18:42:17.494Z,100.00
2022-08-07T18:45:44.467Z,100.00
2022-08-07T18:48:01.050Z,100.00
2022-08-07T18:50:54.697Z,100.00
2022-08-07T18:53:39.792Z,100.00
2022-08-07T18:56:21.040Z,100.00
2022-08-07T18:59:47.086Z,100.00
2022-08-07T19:02:18.325Z,100.00
2022-08-07T19:05:15.631Z,100.00
2022-08-07T19:07:58.756Z,100.00
2022-08-07T19:10:49.538Z,100.00
2022-08-07T19:13:27.696Z,100.00
2022-08-07T19:16:04.728Z,100.00
2022-08-07T19:19:00.184Z,100.00
2022-08-07T19:21:43.944Z,100.00
2022-08-07T19:24:31.012Z,100.00
2022-08-07T19:28:59.068Z,100.00
2022-08-07T19:30:55.492Z,100.00
2022-08-07T19:32:59.263Z,100.00
2022-08-07T19:35:33.279Z,100.00
2022-08-07T19:38:15.916Z,100.00
2022-08-07T19:40:50.065Z,100.00
2022-08-07T19:43:48.979Z,100.00
2022-08-07T19:46:15.685Z,100.00
2022-08-07T19:48:53.776Z,100.00
2022-08-07T19:51:52.068Z,100.00
2022-08-07T19:54:33.335Z,100.00
2022-08-07T19:58:02.864Z,100.00
2022-08-07T20:00:02.147Z,100.00
2022-08-07T20:02:39.349Z,100.00
2022-08-07T20:05:13.739Z,100.00
2022-08-07T20:07:50.692Z,100.00
2022-08-07T20:10:35.995Z,100.00
2022-08-07T20:13:23.841Z,100.00
2022-08-07T20:15:58.396Z,100.00
2022-08-07T20:18:32.894Z,100.00
2022-08-07T20:21:21.063Z,100.00
2022-08-07T20:23:54.917Z,100.00
2022-08-07T20:26:38.753Z,100.00
2022-08-07T20:29:49.293Z,100.00
2022-08-07T20:32:11.433Z,100.00
2022-08-07T20:34:53.251Z,100.00
2022-08-07T20:37:29.537Z,100.00
2022-08-07T20:40:02.219Z,100.00
2022-08-07T20:42:33.654Z,100.00
2022-08-07T20:45:33.070Z,100.00
2022-08-07T20:47:58.775Z,100.00
2022-08-07T20:50:30.567Z,100.00
2022-08-07T20:52:59.810Z,100.00
2022-08-07T20:55:32.012Z,100.00
2022-08-07T20:58:12.084Z,100.00
2022-08-07T21:00:56.260Z,100.00
2022-08-07T21:03:27.915Z,100.00
2022-08-07T21:06:21.433Z,100.00
2022-08-07T21:09:01.902Z,100.00
2022-08-07T21:11:46.143Z,100.00
2022-08-07T21:14:33.184Z,100.00
2022-08-07T21:18:02.308Z,100.00
2022-08-07T21:20:04.857Z,100.00
2022-08-07T21:22:44.777Z,100.00
2022-08-07T21:25:29.211Z,100.00
2022-08-07T21:28:13.429Z,100.00
2022-08-07T21:30:56.330Z,100.00
2022-08-07T21:33:41.384Z,100.00
2022-08-07T21:36:31.861Z,100.00
2022-08-07T21:39:46.758Z,100.00
2022-08-07T21:42:37.501Z,100.00
2022-08-07T21:45:30.779Z,100.00
2022-08-07T21:48:08.529Z,100.00
2022-08-07T21:51:04.084Z,100.00
2022-08-07T21:53:46.419Z,100.00
2022-08-07T21:56:35.871Z,100.00
2022-08-07T21:59:09.534Z,100.00
2022-08-07T22:02:07.371Z,100.00
2022-08-07T22:04:41.558Z,100.00
2022-08-07T22:07:31.275Z,100.00
2022-08-07T22:10:08.312Z,100.00
2022-08-07T22:12:43.144Z,100.00
2022-08-07T22:16:44.425Z,100.00
2022-08-07T22:18:11.126Z,100.00
2022-08-07T22:20:50.001Z,100.00
2022-08-07T22:23:25.652Z,100.00
2022-08-07T22:26:04.936Z,100.00
2022-08-07T22:28:41.137Z,100.00
2022-08-07T22:31:56.477Z,100.00
2022-08-07T22:34:28.719Z,100.00
2022-08-07T22:37:09.471Z,100.00
2022-08-07T22:39:51.702Z,100.00
2022-08-07T22:42:29.655Z,100.00
2022-08-07T22:45:03.586Z,100.00
2022-08-07T22:47:59.874Z,100.00
2022-08-07T22:50:58.835Z,100.00
2022-08-07T22:54:05.431Z,100.00
2022-08-07T22:56:35.922Z,100.00
2022-08-07T22:59:36.134Z,100.00
2022-08-07T23:02:27.540Z,100.00
2022-08-07T23:06:08.220Z,100.00
2022-08-07T23:08:30.721Z,100.00
2022-08-07T23:11:13.193Z,100.00
2022-08-07T23:14:09.062Z,100.00
2022-08-07T23:17:04.418Z,100.00
2022-08-07T23:20:07.401Z,100.00
2022-08-07T23:22:49.484Z,100.00
2022-08-07T23:25:33.774Z,100.00
2022-08-07T23:28:29.072Z,100.00
2022-08-07T23:31:18.617Z,100.00
2022-08-07T23:34:39.489Z,100.00
2022-08-07T23:37:30.775Z,100.00
2022-08-07T23:40:12.385Z,100.00
2022-08-07T23:42:56.283Z,100.00
2022-08-07T23:45:33.518Z,100.00
2022-08-07T23:48:36.346Z,100.00
2022-08-07T23:52:57.147Z,100.00
2022-08-07T23:54:05.497Z,100.00
2022-08-07T23:56:53.954Z,100.00
